Time;durP1;ratioP1;P1;durP2;ratioP2;P2;SDS_P1;SDS_P2;PMS_P1;PMS_P2;Temp;Humidity;BMP_temperature;BMP_pressure;BME280_temperature;BME280_humidity;BME280_pressure;Samples;Min_cycle;Max_cycle;Signal;HPM_P1;HPM_P2
2022/04/14 00:01:39;;;;;;;17.37;8.90;;;;;;;7.90;74.46;100971.22;5570778;32;34508;-64
2022/04/14 00:04:42;;;;;;;19.33;9.55;;;;;;;7.77;75.31;100969.69;5556953;32;32653;-65
2022/04/14 00:07:44;;;;;;;21.08;8.85;;;;;;;7.68;75.42;100967.00;5557203;32;32367;-64
2022/04/14 00:10:47;;;;;;;15.75;8.82;;;;;;;7.66;75.71;100963.66;5570782;32;34002;-65
2022/04/14 00:13:50;;;;;;;14.38;8.65;;;;;;;7.52;76.15;100967.50;5570848;32;34220;-64
2022/04/14 00:16:53;;;;;;;13.60;7.95;;;;;;;7.43;76.65;100965.66;5557173;32;32404;-64
2022/04/14 00:19:55;;;;;;;15.20;8.65;;;;;;;7.40;76.85;100960.69;5570692;32;34269;-64
2022/04/14 00:22:59;;;;;;;16.83;9.20;;;;;;;7.61;77.18;100968.50;5557023;32;32757;-64
2022/04/14 00:26:02;;;;;;;15.77;8.25;;;;;;;7.42;77.79;100958.72;5556938;32;32247;-64
2022/04/14 00:29:05;;;;;;;19.67;9.57;;;;;;;7.57;76.54;100956.53;5576772;31;33946;-64
2022/04/14 00:32:08;;;;;;;18.00;9.23;;;;;;;7.59;76.06;100963.38;5590577;31;33433;-64
2022/04/14 00:35:11;;;;;;;13.57;8.35;;;;;;;7.58;76.38;100961.69;5589771;31;32275;-65
2022/04/14 00:38:13;;;;;;;16.73;8.68;;;;;;;7.43;76.31;100969.16;5589061;31;34461;-64
2022/04/14 00:41:17;;;;;;;17.05;8.75;;;;;;;7.33;76.33;100964.78;5589469;31;33050;-64
2022/04/14 00:44:19;;;;;;;17.73;9.15;;;;;;;7.32;77.20;100958.69;5589403;31;34064;-64
2022/04/14 00:47:22;;;;;;;15.95;8.52;;;;;;;7.23;77.45;100953.38;5590056;31;34571;-65
2022/04/14 00:50:25;;;;;;;14.85;8.60;;;;;;;7.24;77.06;100966.44;5589101;31;32334;-64
2022/04/14 00:53:28;;;;;;;15.77;8.88;;;;;;;7.05;78.50;100957.59;5589224;31;34003;-65
2022/04/14 00:56:30;;;;;;;14.63;8.77;;;;;;;6.94;79.42;100955.84;5590122;31;33808;-64
2022/04/14 00:59:34;;;;;;;16.30;9.65;;;;;;;6.85;79.66;100956.63;5576468;31;32714;-64
2022/04/14 01:02:36;;;;;;;19.52;10.38;;;;;;;6.92;80.32;100953.34;5590293;31;34224;-65
2022/04/14 01:05:40;;;;;;;16.12;9.55;;;;;;;6.86;80.15;100950.41;5590013;31;34132;-64
2022/04/14 01:09:16;;;;;;;17.90;9.35;;;;;;;6.79;80.32;100947.44;5589928;31;35105;-65
2022/04/14 01:12:07;;;;;;;14.27;8.80;;;;;;;6.73;80.55;100955.06;5589975;31;33910;-65
2022/04/14 01:15:12;;;;;;;14.60;9.13;;;;;;;6.75;80.36;100953.09;5590255;31;34494;-64
2022/04/14 01:18:16;;;;;;;15.68;8.55;;;;;;;6.83;80.61;100955.91;5589877;31;33889;-64
2022/04/14 01:21:21;;;;;;;13.27;8.50;;;;;;;6.92;79.37;100955.97;5589090;31;33948;-64
2022/04/14 01:24:25;;;;;;;14.73;8.73;;;;;;;6.98;78.36;100959.91;5589804;31;33853;-65
2022/04/14 01:27:29;;;;;;;14.55;8.68;;;;;;;6.91;78.84;100949.06;5589022;31;32254;-64
2022/04/14 01:30:32;;;;;;;14.70;8.15;;;;;;;6.98;78.05;100950.19;5588930;31;32386;-64
2022/04/14 01:33:34;;;;;;;14.38;8.20;;;;;;;6.78;79.31;100950.19;5589798;31;34628;-64
2022/04/14 01:36:37;;;;;;;15.07;8.70;;;;;;;6.61;79.75;100943.72;5590070;31;34314;-65
2022/04/14 01:39:40;;;;;;;16.15;7.97;;;;;;;6.77;79.85;100945.91;5589661;31;33859;-64
2022/04/14 01:42:43;;;;;;;14.30;8.98;;;;;;;6.63;80.81;100952.34;5589541;31;33789;-64
2022/04/14 01:45:50;;;;;;;16.23;9.32;;;;;;;6.61;81.14;100956.06;5589750;31;33978;-64
2022/04/14 01:48:54;;;;;;;14.75;8.77;;;;;;;6.75;79.45;100953.09;5589101;31;33781;-64
2022/04/14 01:51:56;;;;;;;16.33;9.40;;;;;;;6.62;79.96;100947.19;5589113;31;34117;-64
2022/04/14 01:54:59;;;;;;;14.23;8.73;;;;;;;6.41;81.58;100957.72;5588876;31;35137;-65
2022/04/14 01:58:02;;;;;;;17.40;9.57;;;;;;;6.35;81.93;100953.78;5575815;31;33118;-65
2022/04/14 02:01:04;;;;;;;13.10;8.65;;;;;;;6.42;82.45;100960.25;5589416;31;34457;-64
2022/04/14 02:04:07;;;;;;;16.85;9.23;;;;;;;6.36;82.80;100966.00;5589390;31;33860;-64
2022/04/14 02:07:10;;;;;;;14.25;8.63;;;;;;;6.45;82.35;100962.59;5588683;31;34614;-64
2022/04/14 02:10:14;;;;;;;13.85;8.30;;;;;;;6.37;81.94;100957.16;5588636;31;33538;-64
2022/04/14 02:13:17;;;;;;;16.85;8.93;;;;;;;6.20;82.38;100957.69;5589361;31;33813;-64
2022/04/14 02:16:19;;;;;;;14.48;8.25;;;;;;;6.07;82.61;100959.66;5589205;31;33977;-64
2022/04/14 02:19:22;;;;;;;15.20;8.82;;;;;;;6.18;82.04;100964.06;5575692;31;32454;-64
2022/04/14 02:22:25;;;;;;;12.48;7.85;;;;;;;6.04;82.67;100962.53;5588268;31;32986;-64
2022/04/14 02:25:27;;;;;;;15.07;8.50;;;;;;;6.00;83.69;100958.50;5589484;31;34173;-64
2022/04/14 02:28:30;;;;;;;13.77;7.55;;;;;;;6.17;82.85;100947.41;5588928;31;33936;-65
2022/04/14 02:31:33;;;;;;;17.45;8.82;;;;;;;6.17;81.64;100951.84;5589033;31;33907;-64
2022/04/14 02:34:36;;;;;;;14.85;7.68;;;;;;;5.98;82.41;100955.97;5589142;31;33823;-64
2022/04/14 02:37:39;;;;;;;15.93;8.88;;;;;;;5.96;82.38;100959.69;5589287;31;34473;-65
2022/04/14 02:40:41;;;;;;;13.85;8.07;;;;;;;5.85;82.87;100970.22;5588143;31;33963;-63
2022/04/14 02:43:44;;;;;;;14.10;8.00;;;;;;;5.84;83.36;100965.91;5588774;31;33929;-64
2022/04/14 02:46:47;;;;;;;11.82;7.35;;;;;;;5.79;83.42;100963.66;5588843;31;34502;-64
2022/04/14 02:49:49;;;;;;;15.05;7.07;;;;;;;5.87;83.10;100963.06;5588757;31;33732;-64
2022/04/14 02:52:54;;;;;;;10.45;7.10;;;;;;;5.96;82.30;100960.50;5587984;31;34199;-64
2022/04/14 02:55:57;;;;;;;14.65;8.00;;;;;;;5.85;82.30;100962.31;5587705;31;33840;-63
2022/04/14 02:58:59;;;;;;;12.07;7.72;;;;;;;5.70;83.62;100953.84;5588617;31;34003;-64
2022/04/14 03:02:03;;;;;;;11.55;6.80;;;;;;;5.62;84.03;100949.19;5590051;31;35270;-64
2022/04/14 03:05:07;;;;;;;12.05;7.18;;;;;;;5.66;84.47;100953.25;5577102;31;32362;-64
2022/04/14 03:08:10;;;;;;;14.05;6.78;;;;;;;5.74;84.80;100952.66;5590951;31;33823;-64
2022/04/14 03:11:12;;;;;;;11.10;6.68;;;;;;;5.85;83.27;100957.06;5590249;31;32449;-64
2022/04/14 03:14:15;;;;;;;13.50;7.45;;;;;;;5.80;83.19;100959.22;5591027;31;33938;-64
2022/04/14 03:17:18;;;;;;;12.05;7.03;;;;;;;5.56;84.06;100957.59;5589932;31;32490;-64
2022/04/14 03:20:21;;;;;;;10.02;7.10;;;;;;;5.40;84.87;100961.53;5590984;31;35123;-64
2022/04/14 03:23:24;;;;;;;15.82;6.97;;;;;;;5.34;85.04;100967.28;5589779;31;32652;-64
2022/04/14 03:26:27;;;;;;;12.63;7.00;;;;;;;5.18;86.19;100968.47;5590748;31;35192;-64
2022/04/14 03:29:32;;;;;;;13.00;6.82;;;;;;;5.10;88.22;100959.50;5590754;31;34061;-64
2022/04/14 03:32:46;;;;;;;12.95;6.70;;;;;;;5.05;88.67;100964.28;5590010;31;34401;-63
2022/04/14 03:35:48;;;;;;;11.40;7.53;;;;;;;4.97;88.50;100954.34;5590803;31;34529;-63
2022/04/14 03:38:51;;;;;;;13.77;6.97;;;;;;;5.01;88.30;100961.06;5590661;31;34024;-64
2022/04/14 03:41:54;;;;;;;17.98;7.55;;;;;;;4.92;88.66;100961.75;5590091;31;33724;-65
2022/04/14 03:44:58;;;;;;;11.43;7.30;;;;;;;4.89;89.07;100969.06;5590013;31;33767;-64
2022/04/14 03:48:01;;;;;;;11.35;7.60;;;;;;;4.83;89.79;100967.72;5590731;31;33920;-65
2022/04/14 03:51:03;;;;;;;12.52;7.57;;;;;;;4.78;90.39;100965.44;5589869;31;33905;-64
2022/04/14 03:54:06;;;;;;;11.35;7.03;;;;;;;4.75;91.00;100970.91;5590484;31;34001;-64
2022/04/14 03:57:09;;;;;;;14.35;7.50;;;;;;;4.72;91.46;100975.56;5589870;31;32659;-64
2022/04/14 04:00:12;;;;;;;10.52;7.40;;;;;;;4.69;91.83;100970.56;5589939;31;32220;-64
2022/04/14 04:03:15;;;;;;;13.48;7.37;;;;;;;4.68;92.63;100974.97;5590461;31;34578;-65
2022/04/14 04:06:18;;;;;;;14.43;7.70;;;;;;;4.65;93.67;100983.06;5590541;31;33768;-64
2022/04/14 04:09:20;;;;;;;15.77;8.45;;;;;;;4.66;94.04;100984.75;5589852;31;33085;-65
2022/04/14 04:12:23;;;;;;;13.77;7.95;;;;;;;4.68;95.02;100992.53;5589915;31;33898;-64
2022/04/14 04:15:26;;;;;;;20.02;7.72;;;;;;;4.68;95.10;100979.41;5589705;31;33949;-63
2022/04/14 04:18:30;;;;;;;12.70;8.07;;;;;;;4.70;95.04;100975.69;5590373;31;34482;-64
2022/04/14 04:21:33;;;;;;;13.68;7.95;;;;;;;4.76;95.42;100977.00;5589713;31;33096;-64
2022/04/14 04:24:37;;;;;;;11.23;7.15;;;;;;;4.77;95.48;100978.69;5590662;31;33876;-64
2022/04/14 04:27:40;;;;;;;14.65;7.97;;;;;;;4.83;97.08;100988.75;5590225;31;34528;-63
2022/04/14 04:30:42;;;;;;;15.52;7.53;;;;;;;4.79;97.25;100988.12;5589518;31;32477;-64
2022/04/14 04:33:45;;;;;;;13.68;8.07;;;;;;;4.77;97.56;100992.69;5590087;31;33969;-64
2022/04/14 04:36:48;;;;;;;12.13;7.22;;;;;;;4.73;98.01;100993.03;5589121;31;34658;-63
2022/04/14 04:39:50;;;;;;;10.65;7.18;;;;;;;4.71;99.59;100992.28;5589515;31;32625;-65
2022/04/14 04:42:53;;;;;;;14.32;7.35;;;;;;;4.75;99.18;101002.47;5589333;31;34622;-64
2022/04/14 04:45:56;;;;;;;12.43;7.28;;;;;;;4.79;99.29;100992.56;5589195;31;34506;-64
2022/04/14 04:48:59;;;;;;;14.87;7.70;;;;;;;4.78;99.46;101004.88;5590132;31;34050;-65
2022/04/14 04:52:05;;;;;;;11.65;7.87;;;;;;;4.80;99.70;100997.69;5590508;31;34531;-65
2022/04/14 04:55:08;;;;;;;16.95;8.55;;;;;;;4.86;99.86;100999.03;5589433;31;32494;-63
2022/04/14 04:58:10;;;;;;;16.10;8.20;;;;;;;4.99;99.97;101009.44;5588878;31;32342;-63
2022/04/14 05:01:13;;;;;;;12.77;8.32;;;;;;;5.20;99.36;101002.56;5588979;31;34202;-65
2022/04/14 05:04:16;;;;;;;12.02;7.60;;;;;;;5.35;98.42;101008.41;5589640;31;34071;-65
2022/04/14 05:07:19;;;;;;;14.10;8.70;;;;;;;5.53;97.56;101012.25;5589107;31;35187;-64
2022/04/14 05:10:21;;;;;;;12.68;8.15;;;;;;;5.55;97.25;101012.97;5589802;31;33817;-64
2022/04/14 05:13:24;;;;;;;15.10;8.57;;;;;;;5.54;97.10;101022.66;5589570;31;34023;-64
2022/04/14 05:16:27;;;;;;;16.42;8.25;;;;;;;5.56;97.31;101015.50;5589811;31;34667;-64
2022/04/14 05:19:30;;;;;;;12.85;8.23;;;;;;;5.60;96.93;101014.28;5588799;31;32517;-64
2022/04/14 05:22:33;;;;;;;15.40;8.38;;;;;;;5.67;95.94;101017.25;5588886;31;32265;-64
2022/04/14 05:25:36;;;;;;;12.85;7.95;;;;;;;5.78;95.14;101019.87;5575945;31;32485;-64
2022/04/14 05:28:39;;;;;;;13.75;7.90;;;;;;;5.89;93.84;101014.66;5588205;31;32570;-64
2022/04/14 05:31:41;;;;;;;13.62;8.23;;;;;;;5.90;92.96;101024.22;5589619;31;33880;-64
2022/04/14 05:34:44;;;;;;;11.88;7.85;;;;;;;6.01;90.85;101028.62;5588971;31;32507;-64
2022/04/14 05:37:48;;;;;;;13.40;7.60;;;;;;;6.18;89.24;101030.75;5588762;31;34194;-65
2022/04/14 05:40:51;;;;;;;14.63;6.95;;;;;;;6.32;87.32;101033.09;5588539;31;33283;-65
2022/04/14 05:43:53;;;;;;;14.73;6.90;;;;;;;6.54;85.09;101019.84;5589090;31;33881;-65
2022/04/14 05:46:56;;;;;;;16.05;7.57;;;;;;;6.76;82.23;101025.97;5589389;31;34711;-65
2022/04/14 05:49:59;;;;;;;16.58;7.15;;;;;;;6.97;81.35;101026.84;5588212;31;33117;-65
2022/04/14 05:53:01;;;;;;;12.93;6.37;;;;;;;7.32;78.55;101034.38;5588194;31;32462;-64
2022/04/14 05:56:05;;;;;;;9.40;6.35;;;;;;;7.54;78.09;101038.66;5588463;31;33850;-64
2022/04/14 05:59:16;;;;;;;12.75;6.82;;;;;;;7.78;75.40;101041.81;5588382;31;33735;-65
2022/04/14 06:02:18;;;;;;;;;;;;;;;7.92;74.48;101032.69;5588811;31;32999;-64
2022/04/14 06:05:21;;;;;;;11.82;6.72;;;;;;;8.15;73.97;101037.63;5588386;31;34302;-64
2022/04/14 06:08:24;;;;;;;12.07;6.25;;;;;;;8.41;71.70;101035.34;5589236;31;34025;-65
2022/04/14 06:11:28;;;;;;;12.37;6.97;;;;;;;8.50;70.42;101036.31;5589270;31;33953;-65
2022/04/14 06:14:33;;;;;;;15.02;6.82;;;;;;;8.65;68.44;101037.56;5588041;31;32789;-65
2022/04/14 06:17:35;;;;;;;10.02;5.95;;;;;;;8.84;68.38;101036.72;5575336;31;33475;-65
2022/04/14 06:20:38;;;;;;;11.82;6.18;;;;;;;9.09;66.26;101036.97;5588757;31;34595;-65
2022/04/14 06:23:41;;;;;;;14.20;6.57;;;;;;;9.33;64.84;101027.72;5589088;31;34570;-65
2022/04/14 06:26:44;;;;;;;12.35;6.70;;;;;;;9.60;64.71;101036.53;5587330;31;34052;-66
2022/04/14 06:29:46;;;;;;;14.45;7.60;;;;;;;9.58;63.69;101037.66;5574475;31;33305;-65
2022/04/14 06:33:00;;;;;;;11.48;6.70;;;;;;;9.69;64.41;101037.47;5589252;31;33778;-66
2022/04/14 06:36:03;;;;;;;11.15;6.90;;;;;;;9.94;63.00;101035.97;5574439;31;34129;-65
2022/04/14 06:39:12;;;;;;;19.10;7.15;;;;;;;10.27;62.04;101031.88;5574946;31;32638;-65
2022/04/14 06:42:21;;;;;;;13.15;7.05;;;;;;;10.79;59.73;101036.38;5588780;31;33920;-65
2022/04/14 06:45:25;;;;;;;13.00;7.45;;;;;;;11.22;56.98;101035.53;5587989;31;32659;-66
2022/04/14 06:48:28;;;;;;;12.85;7.55;;;;;;;11.68;56.73;101026.31;5575093;31;33219;-66
2022/04/14 06:51:30;;;;;;;14.00;7.65;;;;;;;12.68;53.23;101032.63;5587652;31;32965;-65
2022/04/14 06:54:33;;;;;;;18.08;8.85;;;;;;;14.28;50.06;101032.41;5587543;31;34560;-66
2022/04/14 06:57:36;;;;;;;14.15;8.32;;;;;;;14.05;48.63;101019.00;5587254;31;32850;-65
2022/04/14 07:00:40;;;;;;;17.15;8.45;;;;;;;14.52;49.35;101031.47;5587374;31;32338;-65
2022/04/14 07:03:43;;;;;;;13.80;8.05;;;;;;;16.20;44.75;101021.88;5587264;31;33510;-65
2022/04/14 07:06:46;;;;;;;15.05;7.70;;;;;;;16.76;43.64;101025.56;5586839;31;33463;-66
2022/04/14 07:09:49;;;;;;;23.90;7.95;;;;;;;18.08;40.47;101024.59;5587409;31;32680;-66
2022/04/14 07:12:52;;;;;;;15.10;7.40;;;;;;;19.17;38.03;101027.06;5587345;31;32314;-66
2022/04/14 07:15:55;;;;;;;14.77;7.65;;;;;;;18.75;35.40;101022.91;5588137;31;34027;-66
2022/04/14 07:18:59;;;;;;;14.65;7.85;;;;;;;17.29;37.57;101023.28;5586950;31;32364;-68
2022/04/14 07:22:02;;;;;;;12.25;7.93;;;;;;;16.41;38.93;101026.44;5588067;31;34545;-66
2022/04/14 07:25:05;;;;;;;10.20;7.00;;;;;;;18.01;36.52;101022.94;5587115;31;33431;-65
2022/04/14 07:28:08;;;;;;;13.30;7.70;;;;;;;18.32;36.58;101025.06;5586743;31;33068;-66
2022/04/14 07:31:11;;;;;;;13.05;7.28;;;;;;;19.34;34.41;101021.03;5586943;31;32848;-65
2022/04/14 07:34:14;;;;;;;13.40;6.40;;;;;;;20.16;31.33;101009.63;5587934;31;34458;-66
2022/04/14 07:37:17;;;;;;;14.02;6.50;;;;;;;20.81;29.87;101015.66;5587238;31;32481;-66
2022/04/14 07:40:20;;;;;;;9.73;6.50;;;;;;;18.42;32.28;101014.78;5574134;31;32466;-65
2022/04/14 07:43:23;;;;;;;13.48;5.80;;;;;;;20.19;30.07;101017.25;5587564;31;33812;-66
2022/04/14 07:46:25;;;;;;;14.45;5.97;;;;;;;20.59;28.19;101008.97;5587980;31;35096;-66
2022/04/14 07:49:28;;;;;;;13.25;5.80;;;;;;;19.15;30.40;101019.19;5588923;31;33110;-66
2022/04/14 07:52:45;;;;;;;13.18;5.50;;;;;;;19.05;29.22;101016.09;5589841;31;33455;-67
2022/04/14 07:55:48;;;;;;;12.27;5.95;;;;;;;20.52;27.10;101022.50;5576507;31;32582;-67
2022/04/14 07:58:51;;;;;;;9.75;5.80;;;;;;;21.70;25.91;101023.34;5589401;31;33503;-66
2022/04/14 08:01:54;;;;;;;11.00;5.25;;;;;;;20.50;25.97;101015.66;5590224;31;34533;-66
2022/04/14 08:04:56;;;;;;;13.07;6.80;;;;;;;19.86;27.66;101020.09;5589308;31;32255;-66
2022/04/14 08:08:07;;;;;;;10.93;5.90;;;;;;;20.97;27.61;101017.78;5589355;31;32516;-67
2022/04/14 08:11:10;;;;;;;9.18;4.72;;;;;;;21.54;25.21;101018.56;5589379;31;33077;-66
2022/04/14 08:14:14;;;;;;;8.85;5.28;;;;;;;22.58;22.73;101023.69;5589198;31;34452;-66
2022/04/14 08:17:17;;;;;;;9.98;4.78;;;;;;;22.99;22.22;101020.16;5588833;31;32646;-66
2022/04/14 08:20:19;;;;;;;8.93;4.47;;;;;;;23.45;21.31;101019.34;5576541;31;32808;-67
2022/04/14 08:23:22;;;;;;;8.82;4.20;;;;;;;25.21;20.43;101018.41;5589722;31;34622;-67
2022/04/14 08:26:28;;;;;;;16.17;4.55;;;;;;;24.84;19.43;101019.91;5589767;31;34502;-67
2022/04/14 08:29:31;;;;;;;8.00;4.12;;;;;;;24.61;19.32;101018.19;5590022;31;34520;-67
2022/04/14 08:32:35;;;;;;;7.60;3.95;;;;;;;23.98;21.08;101011.00;5590404;31;33847;-67
2022/04/14 08:35:38;;;;;;;7.57;4.40;;;;;;;23.59;20.37;101015.34;5589503;31;32929;-67
2022/04/14 08:38:46;;;;;;;7.82;3.50;;;;;;;23.03;21.15;101015.09;5588892;31;33621;-66
2022/04/14 08:41:59;;;;;;;7.45;4.05;;;;;;;22.94;21.27;101015.44;5576231;31;33228;-66
2022/04/14 08:45:05;;;;;;;7.47;3.95;;;;;;;23.13;21.76;101018.88;5588916;31;33305;-67
2022/04/14 08:48:08;;;;;;;4.50;3.08;;;;;;;20.73;22.15;101014.03;5588992;31;33306;-66
2022/04/14 08:51:14;;;;;;;9.60;3.33;;;;;;;21.44;21.59;101019.06;5589030;31;33864;-66
2022/04/14 08:54:19;;;;;;;5.25;2.87;;;;;;;22.85;20.90;101016.03;5589888;31;34001;-67
2022/04/14 08:57:23;;;;;;;9.77;2.72;;;;;;;23.69;20.45;101010.13;5589711;31;33788;-67
2022/04/14 09:00:27;;;;;;;4.72;2.80;;;;;;;25.47;19.07;101014.13;5588905;31;33947;-67
2022/04/14 09:03:31;;;;;;;4.28;2.72;;;;;;;25.51;17.71;101015.31;5589511;31;34465;-66
2022/04/14 09:06:35;;;;;;;5.28;3.08;;;;;;;24.76;16.62;101007.59;5589818;31;34553;-66
2022/04/14 09:09:38;;;;;;;5.00;2.05;;;;;;;25.18;17.24;100999.87;5589960;31;33957;-66
2022/04/14 09:12:41;;;;;;;6.15;2.12;;;;;;;23.08;17.82;101010.63;5588602;31;33779;-67
2022/04/14 09:15:44;;;;;;;3.53;1.80;;;;;;;22.86;17.45;101006.81;5588876;31;32729;-68
2022/04/14 09:18:48;;;;;;;3.60;1.73;;;;;;;23.06;17.39;101007.31;5588416;31;34622;-68
2022/04/14 09:22:04;;;;;;;3.70;1.92;;;;;;;21.42;19.55;100999.56;5589253;31;34484;-67
2022/04/14 09:25:07;;;;;;;3.05;2.28;;;;;;;20.49;19.81;100998.66;5587739;31;34134;-66
2022/04/14 09:28:16;;;;;;;3.75;2.12;;;;;;;19.65;20.68;101003.41;5589334;31;34071;-66
2022/04/14 09:31:19;;;;;;;5.95;2.28;;;;;;;20.27;21.01;100994.62;5589128;31;34267;-67
2022/04/14 09:34:48;;;;;;;3.33;2.17;;;;;;;20.27;20.86;100984.69;5588418;31;32400;-65
2022/04/14 09:38:13;;;;;;;5.47;2.20;;;;;;;20.92;18.94;100993.34;5589399;31;34222;-66
2022/04/14 09:41:33;;;;;;;4.22;1.92;;;;;;;22.44;17.56;100998.72;5588616;31;33227;-66
2022/04/14 09:44:36;;;;;;;5.37;1.98;;;;;;;21.42;19.11;100993.34;5575420;31;32295;-66
2022/04/14 09:47:39;;;;;;;5.20;2.08;;;;;;;21.73;18.86;100986.97;5588092;31;32561;-66
2022/04/14 09:50:47;;;;;;;4.35;2.33;;;;;;;21.62;19.32;100989.37;5588863;31;35150;-65
2022/04/14 09:53:50;;;;;;;2.47;1.67;;;;;;;21.59;19.37;100989.00;5589349;31;35143;-65
2022/04/14 09:56:57;;;;;;;3.12;2.15;;;;;;;20.51;19.54;100980.41;5588304;31;32391;-65
2022/04/14 09:59:59;;;;;;;4.05;2.25;;;;;;;19.51;20.32;100981.06;5589356;31;35193;-64
2022/04/14 10:03:12;;;;;;;2.90;1.98;;;;;;;19.38;20.94;100978.38;5589330;31;34281;-65
2022/04/14 10:06:16;;;;;;;4.40;2.00;;;;;;;19.10;21.45;100979.47;5587945;31;32742;-64
2022/04/14 10:09:31;;;;;;;5.10;2.05;;;;;;;18.81;22.73;100976.41;5589016;31;34202;-65
2022/04/14 10:12:34;;;;;;;3.25;1.87;;;;;;;18.32;21.26;100979.41;5587049;31;33276;-66
2022/04/14 10:15:39;;;;;;;4.70;2.20;;;;;;;18.57;21.29;100969.78;5587958;31;32261;-65
2022/04/14 10:18:44;;;;;;;4.32;1.87;;;;;;;18.55;21.13;100964.59;5587912;31;33391;-65
2022/04/14 10:21:47;;;;;;;3.10;2.10;;;;;;;18.55;21.36;100956.53;5588173;31;33363;-65
2022/04/14 10:24:53;;;;;;;6.45;2.35;;;;;;;18.50;22.21;100956.28;5588727;31;34513;-65
2022/04/14 10:27:59;;;;;;;4.07;2.12;;;;;;;18.62;22.00;100951.16;5584572;31;137946;-66
2022/04/14 10:31:02;;;;;;;3.45;1.98;;;;;;;18.74;23.25;100952.19;5588842;31;34531;-65
2022/04/14 10:34:07;;;;;;;6.43;2.50;;;;;;;18.24;22.24;100946.34;5589005;31;34544;-64
2022/04/14 10:37:16;;;;;;;3.80;2.05;;;;;;;18.60;23.61;100950.53;5588603;31;34017;-65
2022/04/14 10:40:18;;;;;;;4.20;2.03;;;;;;;18.99;22.29;100944.31;5588555;31;34249;-65
2022/04/14 10:43:24;;;;;;;3.78;1.90;;;;;;;20.15;20.10;100931.69;5587609;31;32666;-65
2022/04/14 10:46:40;;;;;;;6.95;2.40;;;;;;;23.33;18.31;100937.28;5586924;31;33761;-66
2022/04/14 10:49:49;;;;;;;6.07;1.75;;;;;;;26.51;15.75;100933.28;5588346;31;35358;-66
2022/04/14 10:53:36;;;;;;;3.37;1.90;;;;;;;28.43;14.17;100938.84;5586995;31;33222;-67
2022/04/14 10:56:45;;;;;;;3.15;2.12;;;;;;;28.48;13.71;100933.38;5578229;31;33981;-66
2022/04/14 10:59:48;;;;;;;5.22;2.17;;;;;;;30.64;13.27;100935.56;5587087;31;32431;-68
2022/04/14 11:03:11;;;;;;;2.55;1.60;;;;;;;31.62;11.27;100921.37;5588346;31;34093;-67
2022/04/14 11:06:43;;;;;;;3.35;2.08;;;;;;;29.70;13.16;100925.75;5587453;31;33842;-68
2022/04/14 11:09:49;;;;;;;4.43;2.20;;;;;;;33.68;10.74;100926.38;5574140;31;33377;-68
2022/04/14 11:12:54;;;;;;;4.50;1.85;;;;;;;33.61;10.33;100929.50;5587389;31;32669;-68
2022/04/14 11:15:57;;;;;;;2.60;2.10;;;;;;;27.18;14.22;100928.03;5574364;31;33277;-68
2022/04/14 11:19:29;;;;;;;4.80;2.08;;;;;;;28.89;13.88;100915.91;5587304;31;33229;-67
2022/04/14 11:23:08;;;;;;;3.25;1.85;;;;;;;27.68;13.96;100915.75;5586125;31;32575;-67
2022/04/14 11:26:12;;;;;;;;;;;;;;;30.22;12.25;100916.97;5591255;31;33905;-68
2022/04/14 11:29:14;;;;;;;5.57;2.60;;;;;;;29.71;12.45;100909.06;5590534;31;34734;-69
2022/04/14 11:32:35;;;;;;;7.07;2.20;;;;;;;29.98;12.63;100908.66;5590698;31;33735;-67
2022/04/14 11:36:13;;;;;;;3.87;2.30;;;;;;;32.41;11.42;100903.19;5590927;31;34000;-68
2022/04/14 11:39:30;;;;;;;2.65;1.73;;;;;;;33.93;10.16;100909.31;5589347;31;32817;-68
2022/04/14 11:42:33;;;;;;;4.00;2.00;;;;;;;33.01;9.83;100897.75;5589488;31;33458;-67
2022/04/14 11:45:36;;;;;;;2.53;1.80;;;;;;;31.33;10.86;100891.28;5589210;31;32542;-68
2022/04/14 11:48:40;;;;;;;3.45;2.05;;;;;;;32.42;10.40;100882.03;5590589;31;34586;-67
2022/04/14 11:51:48;;;;;;;3.25;1.98;;;;;;;28.86;12.13;100889.13;5590701;31;34036;-67
2022/04/14 11:54:53;;;;;;;3.87;2.00;;;;;;;30.46;11.79;100889.72;5589652;31;32853;-69
2022/04/14 11:57:56;;;;;;;3.90;2.05;;;;;;;30.88;11.18;100891.78;5590740;31;34733;-68
2022/04/14 12:01:06;;;;;;;3.58;1.92;;;;;;;34.46;10.33;100878.28;5589727;31;33577;-69
2022/04/14 12:04:09;;;;;;;3.33;2.03;;;;;;;33.08;10.14;100878.91;5589169;31;34093;-68
2022/04/14 12:07:13;;;;;;;2.45;1.85;;;;;;;31.45;11.16;100874.41;5589135;31;33191;-68
2022/04/14 12:10:16;;;;;;;2.75;1.80;;;;;;;31.54;11.39;100867.16;5589994;31;33945;-68
2022/04/14 12:13:21;;;;;;;3.17;1.85;;;;;;;33.87;10.48;100871.19;5590505;31;34279;-68
2022/04/14 12:16:27;;;;;;;3.05;1.83;;;;;;;34.53;9.25;100861.28;5589379;31;34537;-69
2022/04/14 12:19:45;;;;;;;4.82;2.00;;;;;;;34.25;9.84;100849.63;5589794;31;33940;-67
2022/04/14 12:22:48;;;;;;;6.40;2.25;;;;;;;33.72;10.43;100844.84;5589340;31;33048;-69
2022/04/14 12:25:53;;;;;;;2.60;1.70;;;;;;;30.90;11.77;100838.31;5589116;31;33381;-67
2022/04/14 12:28:56;;;;;;;3.08;1.90;;;;;;;31.51;11.67;100834.84;5588961;31;33826;-69
2022/04/14 12:32:13;;;;;;;4.53;1.90;;;;;;;28.94;12.18;100831.22;5589078;31;33320;-67
2022/04/14 12:35:30;;;;;;;2.90;1.80;;;;;;;31.93;11.37;100825.72;5589526;31;33836;-67
2022/04/14 12:38:44;;;;;;;2.55;1.60;;;;;;;35.45;9.51;100816.22;5590087;31;33793;-68
2022/04/14 12:41:47;;;;;;;2.67;1.70;;;;;;;34.07;9.31;100817.56;5589631;31;33185;-67
2022/04/14 12:44:50;;;;;;;2.85;1.67;;;;;;;34.65;8.91;100812.72;5575699;31;32513;-68
2022/04/14 12:47:55;;;;;;;2.37;1.70;;;;;;;35.61;8.32;100803.56;5589145;31;34689;-67
2022/04/14 12:50:58;;;;;;;4.43;1.80;;;;;;;35.98;8.17;100810.37;5589880;31;33863;-68
2022/04/14 12:54:01;;;;;;;2.60;1.60;;;;;;;33.68;8.78;100804.50;5589226;31;33037;-67
2022/04/14 12:57:07;;;;;;;2.83;1.75;;;;;;;35.60;8.29;100788.12;5589683;31;33889;-68
2022/04/14 13:00:14;;;;;;;2.50;1.52;;;;;;;33.29;9.65;100788.56;5589711;31;34551;-68
2022/04/14 13:03:19;;;;;;;2.75;1.62;;;;;;;34.93;8.92;100787.72;5589826;31;33827;-67
2022/04/14 13:06:21;;;;;;;2.83;1.98;;;;;;;33.45;9.35;100774.16;5589112;31;32764;-67
2022/04/14 13:09:24;;;;;;;2.95;1.60;;;;;;;36.02;9.04;100773.50;5590170;31;34622;-68
2022/04/14 13:12:46;;;;;;;2.45;1.50;;;;;;;35.04;8.11;100775.25;5588932;31;32599;-68
2022/04/14 13:15:51;;;;;;;2.50;1.48;;;;;;;36.21;7.63;100764.06;5589877;31;35113;-67
2022/04/14 13:18:54;;;;;;;2.65;1.50;;;;;;;34.59;8.03;100772.66;5575668;31;32381;-68
2022/04/14 13:21:56;;;;;;;1.90;1.35;;;;;;;36.75;7.62;100767.91;5589866;31;34541;-69
2022/04/14 13:24:59;;;;;;;4.05;1.83;;;;;;;32.42;9.03;100758.44;5589379;31;33990;-68
2022/04/14 13:28:02;;;;;;;3.25;1.65;;;;;;;36.09;7.91;100754.47;5588819;31;32993;-67
2022/04/14 13:31:06;;;;;;;1.95;1.30;;;;;;;39.65;6.56;100752.31;5588160;31;33175;-68
2022/04/14 13:34:10;;;;;;;2.67;1.50;;;;;;;33.62;8.10;100740.47;5588872;31;33849;-66
2022/04/14 13:37:12;;;;;;;1.95;1.33;;;;;;;34.34;7.96;100749.37;5588674;31;32603;-67
2022/04/14 13:40:15;;;;;;;3.60;1.77;;;;;;;35.56;7.61;100740.25;5588704;31;32401;-67
2022/04/14 13:43:18;;;;;;;1.60;1.20;;;;;;;32.80;8.47;100739.84;5589427;31;33781;-67
2022/04/14 13:46:20;;;;;;;1.42;1.23;;;;;;;34.63;8.46;100735.06;5587356;31;34035;-68
2022/04/14 13:49:23;;;;;;;1.92;1.20;;;;;;;35.20;7.48;100737.81;5589428;31;34003;-67
2022/04/14 13:52:27;;;;;;;1.70;1.42;;;;;;;36.32;7.27;100729.41;5588678;31;32576;-68
2022/04/14 13:55:33;;;;;;;1.83;1.27;;;;;;;33.08;8.39;100734.00;5589081;31;33968;-67
2022/04/14 13:58:35;;;;;;;2.55;1.35;;;;;;;36.23;7.40;100728.63;5588485;31;34170;-67
2022/04/14 14:01:39;;;;;;;2.72;1.40;;;;;;;38.96;6.97;100729.25;5575147;31;32521;-67
2022/04/14 14:04:42;;;;;;;1.70;1.40;;;;;;;31.86;8.61;100721.81;5588077;31;32799;-66
2022/04/14 14:07:44;;;;;;;2.55;1.48;;;;;;;30.41;9.64;100725.44;5589031;31;34028;-68
2022/04/14 14:10:47;;;;;;;3.40;1.40;;;;;;;29.69;10.14;100722.56;5574973;31;32952;-67
2022/04/14 14:13:50;;;;;;;2.67;1.60;;;;;;;27.92;10.86;100714.28;5588092;31;33686;-67
2022/04/14 14:16:53;;;;;;;3.28;1.83;;;;;;;27.86;11.75;100713.47;5588860;31;34089;-67
2022/04/14 14:19:56;;;;;;;2.45;1.50;;;;;;;28.92;11.28;100701.47;5587812;31;33937;-67
2022/04/14 14:22:58;;;;;;;3.70;1.45;;;;;;;28.45;12.85;100704.66;5587634;31;32794;-66